Time;durP1;ratioP1;P1;durP2;ratioP2;P2;SDS_P1;SDS_P2;PMS_P1;PMS_P2;Temp;Humidity;BMP_temperature;BMP_pressure;BME280_temperature;BME280_humidity;BME280_pressure;Samples;Min_cycle;Max_cycle;Signal;HPM_P1;HPM_P2
2022/04/06 00:01:29;;;;;;;23.77;7.25;;;;;;;;;;7370644;19;20010;-78
2022/04/06 00:03:55;;;;;;;16.63;6.85;;;;;;;;;;7361111;19;20482;-79
2022/04/06 00:06:20;;;;;;;18.83;6.90;;;;;;;;;;7379640;19;19990;-80
2022/04/06 00:08:45;;;;;;;16.45;5.65;;;;;;;;;;7377315;19;20417;-76
2022/04/06 00:11:10;;;;;;;23.70;6.90;;;;;;;;;;7337139;19;20019;-76
2022/04/06 00:13:35;;;;;;;14.43;6.55;;;;;;;;;;7380579;19;20247;-77
2022/04/06 00:16:01;;;;;;;14.73;5.80;;;;;;;;;;7371717;19;19999;-78
2022/04/06 00:18:26;;;;;;;16.10;6.22;;;;;;;;;;7369318;19;20286;-77
2022/04/06 00:20:51;;;;;;;20.45;6.78;;;;;;;;;;7382494;19;20023;-78
2022/04/06 00:23:17;;;;;;;21.13;6.80;;;;;;;;;;7375363;19;20060;-77
2022/04/06 00:25:42;;;;;;;16.98;5.95;;;;;;;;;;7349905;19;20015;-76
2022/04/06 00:28:07;;;;;;;21.57;7.00;;;;;;;;;;7381312;19;20003;-76
2022/04/06 00:30:32;;;;;;;20.40;6.60;;;;;;;;;;7374879;19;20343;-77
2022/04/06 00:32:58;;;;;;;20.70;7.43;;;;;;;;;;7379940;19;20102;-77
2022/04/06 00:35:29;;;;;;;22.38;7.38;;;;;;;;;;7359228;19;20047;-78
2022/04/06 00:38:04;;;;;;;15.75;6.93;;;;;;;;;;7379592;19;20026;-76
2022/04/06 00:40:30;;;;;;;26.75;8.18;;;;;;;;;;7359568;19;20394;-78
2022/04/06 00:42:55;;;;;;;22.15;7.15;;;;;;;;;;7377378;19;20025;-78
2022/04/06 00:45:21;;;;;;;23.80;7.45;;;;;;;;;;7374944;19;20007;-78
2022/04/06 00:47:47;;;;;;;19.92;7.40;;;;;;;;;;7377004;19;20341;-79
2022/04/06 00:50:12;;;;;;;26.10;8.15;;;;;;;;;;7363018;19;20018;-76
2022/04/06 00:52:39;;;;;;;25.58;8.32;;;;;;;;;;7375928;19;20418;-79
2022/04/06 00:55:04;;;;;;;24.90;9.30;;;;;;;;;;7355935;19;20071;-76
2022/04/06 00:57:29;;;;;;;21.67;8.80;;;;;;;;;;7366340;19;20474;-80
2022/04/06 00:59:58;;;;;;;23.45;9.15;;;;;;;;;;7377706;19;20289;-75
2022/04/06 01:02:23;;;;;;;30.27;8.77;;;;;;;;;;7365768;19;20018;-78
2022/04/06 01:04:48;;;;;;;26.05;9.68;;;;;;;;;;7378717;19;20006;-80
2022/04/06 01:07:14;;;;;;;28.67;8.10;;;;;;;;;;7367553;19;20577;-80
2022/04/06 01:09:39;;;;;;;18.50;7.93;;;;;;;;;;7364563;19;20251;-79
2022/04/06 01:12:05;;;;;;;18.75;8.15;;;;;;;;;;7368510;19;20006;-78
2022/04/06 01:14:30;;;;;;;22.13;7.53;;;;;;;;;;7379080;19;20355;-77
2022/04/06 01:17:03;;;;;;;13.77;7.10;;;;;;;;;;7373860;19;20014;-76
2022/04/06 01:19:32;;;;;;;19.80;6.47;;;;;;;;;;7356194;19;20048;-80
2022/04/06 01:21:58;;;;;;;17.98;6.07;;;;;;;;;;7375397;19;20006;-78
2022/04/06 01:24:23;;;;;;;15.15;6.13;;;;;;;;;;7361270;19;20513;-80
2022/04/06 01:26:48;;;;;;;15.75;6.00;;;;;;;;;;7359953;19;20011;-75
2022/04/06 01:29:13;;;;;;;22.33;6.82;;;;;;;;;;7376152;19;20007;-78
2022/04/06 01:31:38;;;;;;;14.85;5.03;;;;;;;;;;7373984;19;20006;-78
2022/04/06 01:34:04;;;;;;;15.70;4.75;;;;;;;;;;7357785;19;20014;-77
2022/04/06 01:36:29;;;;;;;17.33;5.13;;;;;;;;;;7375906;19;20084;-78
2022/04/06 01:38:54;;;;;;;17.95;4.75;;;;;;;;;;7372432;19;19994;-78
2022/04/06 01:41:19;;;;;;;12.40;4.90;;;;;;;;;;7360452;19;20006;-78
2022/04/06 01:43:45;;;;;;;17.42;4.70;;;;;;;;;;7377424;19;20010;-77
2022/04/06 01:46:10;;;;;;;12.47;5.07;;;;;;;;;;7375665;19;20006;-79
2022/04/06 01:52:11;;;;;;;14.57;4.70;;;;;;;;;;7359641;19;20849;-77
2022/04/06 01:54:04;;;;;;;12.77;4.13;;;;;;;;;;7368652;19;20001;-79
2022/04/06 01:56:29;;;;;;;12.45;4.10;;;;;;;;;;7360409;19;20007;-76
2022/04/06 01:58:55;;;;;;;12.35;4.45;;;;;;;;;;7367690;19;20011;-76
2022/04/06 02:01:20;;;;;;;12.15;4.13;;;;;;;;;;7374835;19;20335;-76
2022/04/06 02:03:45;;;;;;;13.57;3.58;;;;;;;;;;7374459;19;20514;-76
2022/04/06 02:06:10;;;;;;;13.23;3.87;;;;;;;;;;7371645;19;20006;-76
2022/04/06 02:08:36;;;;;;;18.10;3.53;;;;;;;;;;7384173;19;20806;-77
2022/04/06 02:11:02;;;;;;;11.63;3.33;;;;;;;;;;7359092;19;20750;-76
2022/04/06 02:13:27;;;;;;;12.48;3.90;;;;;;;;;;7386131;19;20012;-79
2022/04/06 02:15:52;;;;;;;11.95;2.72;;;;;;;;;;7380362;19;20005;-78
2022/04/06 02:18:17;;;;;;;14.45;3.10;;;;;;;;;;7375520;19;20029;-82
2022/04/06 02:20:43;;;;;;;9.05;2.97;;;;;;;;;;7382564;19;20026;-77
2022/04/06 02:23:10;;;;;;;11.38;3.58;;;;;;;;;;7387091;19;20398;-81
2022/04/06 02:25:35;;;;;;;9.93;3.80;;;;;;;;;;7358333;19;20038;-78
2022/04/06 02:28:00;;;;;;;11.45;2.90;;;;;;;;;;7374144;19;20018;-78
2022/04/06 02:30:26;;;;;;;12.23;2.85;;;;;;;;;;7383455;19;20007;-80
2022/04/06 02:32:51;;;;;;;15.18;3.42;;;;;;;;;;7378871;19;20023;-77
2022/04/06 02:35:17;;;;;;;8.95;3.15;;;;;;;;;;7384807;19;20006;-80
2022/04/06 02:37:44;;;;;;;8.80;3.03;;;;;;;;;;7376972;19;20003;-77
2022/04/06 02:40:09;;;;;;;15.07;4.03;;;;;;;;;;7361231;19;20363;-76
2022/04/06 02:42:35;;;;;;;13.55;3.08;;;;;;;;;;7365095;19;20019;-77
2022/04/06 02:45:00;;;;;;;11.45;2.90;;;;;;;;;;7383445;19;20591;-76
2022/04/06 02:47:25;;;;;;;8.90;2.53;;;;;;;;;;7379563;19;20362;-77
2022/04/06 02:49:50;;;;;;;9.13;2.85;;;;;;;;;;7382004;19;20025;-75
2022/04/06 02:52:17;;;;;;;14.63;2.90;;;;;;;;;;7374114;19;20015;-76
2022/04/06 02:54:42;;;;;;;7.18;2.67;;;;;;;;;;7368100;19;20056;-77
2022/04/06 02:57:07;;;;;;;7.50;2.60;;;;;;;;;;7364987;19;20011;-79
2022/04/06 02:59:32;;;;;;;11.73;2.42;;;;;;;;;;7381154;19;20284;-79
2022/04/06 03:01:57;;;;;;;10.00;3.30;;;;;;;;;;7377852;19;20113;-80
2022/04/06 03:04:23;;;;;;;7.45;2.55;;;;;;;;;;7376509;19;20033;-77
2022/04/06 03:06:48;;;;;;;10.80;3.00;;;;;;;;;;7380805;19;20010;-77
2022/04/06 03:09:13;;;;;;;8.03;2.47;;;;;;;;;;7367592;19;20323;-80
2022/04/06 03:11:38;;;;;;;13.15;2.90;;;;;;;;;;7369276;19;20255;-76
2022/04/06 03:14:04;;;;;;;11.95;2.63;;;;;;;;;;7382338;19;20056;-79
2022/04/06 03:16:29;;;;;;;13.50;2.53;;;;;;;;;;7372844;19;20070;-76
2022/04/06 03:18:55;;;;;;;8.40;2.53;;;;;;;;;;7378560;19;20014;-76
2022/04/06 03:21:20;;;;;;;12.73;3.22;;;;;;;;;;7374472;19;20011;-81
2022/04/06 03:23:45;;;;;;;7.35;2.42;;;;;;;;;;7381839;19;20018;-75
2022/04/06 03:26:11;;;;;;;9.52;2.70;;;;;;;;;;7368770;19;20499;-76
2022/04/06 03:28:38;;;;;;;11.38;2.70;;;;;;;;;;7372701;19;20011;-74
2022/04/06 03:31:03;;;;;;;7.68;2.58;;;;;;;;;;7379933;19;20018;-75
2022/04/06 03:33:29;;;;;;;7.18;2.40;;;;;;;;;;7374895;19;20010;-78
2022/04/06 03:35:54;;;;;;;6.40;2.33;;;;;;;;;;7384334;19;20007;-77
2022/04/06 03:38:19;;;;;;;12.93;2.63;;;;;;;;;;7372959;19;20074;-78
2022/04/06 03:40:44;;;;;;;8.47;2.73;;;;;;;;;;7367693;19;19998;-75
2022/04/06 03:43:10;;;;;;;11.27;2.83;;;;;;;;;;7383981;19;20272;-77
2022/04/06 03:45:35;;;;;;;9.60;2.78;;;;;;;;;;7377712;19;20521;-82
2022/04/06 03:48:00;;;;;;;7.80;2.47;;;;;;;;;;7382578;19;19998;-78
2022/04/06 03:50:26;;;;;;;8.05;2.22;;;;;;;;;;7375705;19;20038;-78
2022/04/06 03:52:51;;;;;;;14.30;2.83;;;;;;;;;;7371771;19;20443;-78
2022/04/06 03:55:16;;;;;;;11.18;2.55;;;;;;;;;;7358692;19;20027;-82
2022/04/06 03:57:41;;;;;;;10.05;2.60;;;;;;;;;;7378129;19;20009;-78
2022/04/06 04:00:08;;;;;;;7.78;2.63;;;;;;;;;;7373307;19;20010;-81
2022/04/06 04:02:33;;;;;;;9.68;2.40;;;;;;;;;;7379691;19;20002;-77
2022/04/06 04:04:58;;;;;;;23.85;3.75;;;;;;;;;;7371351;19;20047;-78
2022/04/06 04:07:23;;;;;;;9.13;3.13;;;;;;;;;;7372376;19;20010;-80
2022/04/06 04:09:50;;;;;;;11.45;2.97;;;;;;;;;;7368593;19;20549;-79
2022/04/06 04:12:15;;;;;;;8.75;2.50;;;;;;;;;;7380735;19;20010;-77
2022/04/06 04:14:40;;;;;;;9.55;2.50;;;;;;;;;;7377588;19;20347;-80
2022/04/06 04:17:06;;;;;;;9.48;2.95;;;;;;;;;;7378430;19;20021;-76
2022/04/06 04:19:31;;;;;;;9.65;2.33;;;;;;;;;;7370746;19;20022;-77
2022/04/06 04:21:57;;;;;;;8.77;2.67;;;;;;;;;;7380986;19;20323;-78
2022/04/06 04:24:22;;;;;;;9.00;2.53;;;;;;;;;;7369051;19;20775;-81
2022/04/06 04:26:47;;;;;;;9.65;2.97;;;;;;;;;;7371483;19;20579;-80
2022/04/06 04:29:12;;;;;;;8.23;2.50;;;;;;;;;;7379039;19;20070;-80
2022/04/06 04:31:38;;;;;;;8.77;2.38;;;;;;;;;;7377202;19;20016;-79
2022/04/06 04:34:03;;;;;;;7.43;2.17;;;;;;;;;;7366202;19;20030;-78
2022/04/06 04:36:29;;;;;;;8.63;2.75;;;;;;;;;;7358069;19;20316;-78
2022/04/06 04:38:54;;;;;;;6.53;2.30;;;;;;;;;;7373892;19;20010;-77
2022/04/06 04:41:20;;;;;;;9.18;2.50;;;;;;;;;;7370471;19;20044;-79
2022/04/06 04:43:45;;;;;;;7.75;2.35;;;;;;;;;;7379953;19;20062;-78
2022/04/06 04:46:11;;;;;;;6.93;2.17;;;;;;;;;;7363952;19;20014;-79
2022/04/06 04:48:36;;;;;;;8.45;3.00;;;;;;;;;;7366498;19;20396;-78
2022/04/06 04:51:01;;;;;;;8.45;2.83;;;;;;;;;;7377156;19;20003;-76
2022/04/06 04:53:27;;;;;;;7.28;2.75;;;;;;;;;;7362701;19;19998;-76
2022/04/06 04:55:53;;;;;;;9.65;2.65;;;;;;;;;;7350706;19;20430;-79
2022/04/06 04:58:18;;;;;;;13.10;3.08;;;;;;;;;;7373616;19;20295;-76
2022/04/06 05:00:44;;;;;;;10.95;3.00;;;;;;;;;;7366303;19;20021;-77
2022/04/06 05:03:09;;;;;;;14.03;3.10;;;;;;;;;;7377380;19;20070;-77
2022/04/06 05:05:34;;;;;;;11.10;3.20;;;;;;;;;;7373663;19;20239;-75
2022/04/06 05:08:00;;;;;;;12.68;3.50;;;;;;;;;;7362117;19;20457;-78
2022/04/06 05:10:26;;;;;;;10.57;3.22;;;;;;;;;;7349396;19;20010;-75
2022/04/06 05:12:51;;;;;;;14.48;2.90;;;;;;;;;;7368602;19;20021;-78
2022/04/06 05:15:16;;;;;;;7.15;2.72;;;;;;;;;;7373570;19;20003;-78
2022/04/06 05:17:41;;;;;;;11.65;2.75;;;;;;;;;;7363604;19;20119;-77
2022/04/06 05:20:07;;;;;;;12.40;3.35;;;;;;;;;;7372757;19;20014;-80
2022/04/06 05:22:32;;;;;;;11.45;3.10;;;;;;;;;;7357511;19;20052;-77
2022/04/06 05:24:59;;;;;;;9.85;3.30;;;;;;;;;;7362223;19;20325;-78
2022/04/06 05:27:24;;;;;;;8.57;2.47;;;;;;;;;;7375958;19;20022;-77
2022/04/06 05:29:50;;;;;;;9.30;3.13;;;;;;;;;;7376624;19;20319;-78
2022/04/06 05:32:15;;;;;;;11.13;2.63;;;;;;;;;;7376827;19;20231;-77
2022/04/06 05:34:40;;;;;;;9.00;2.70;;;;;;;;;;7368598;19;20869;-76
2022/04/06 05:37:05;;;;;;;8.30;2.57;;;;;;;;;;7371960;19;20235;-76
2022/04/06 05:39:30;;;;;;;11.32;2.70;;;;;;;;;;7368459;19;20805;-76
2022/04/06 05:41:56;;;;;;;11.10;2.92;;;;;;;;;;7368578;19;20510;-77
2022/04/06 05:44:21;;;;;;;11.30;2.70;;;;;;;;;;7377898;19;20412;-77
2022/04/06 05:46:47;;;;;;;18.65;2.60;;;;;;;;;;7375397;19;20018;-77
2022/04/06 05:49:12;;;;;;;6.70;2.55;;;;;;;;;;7369368;19;20001;-77
2022/04/06 05:51:37;;;;;;;10.32;2.38;;;;;;;;;;7366655;19;20010;-78
2022/04/06 05:54:02;;;;;;;12.20;2.80;;;;;;;;;;7378992;19;20432;-79
2022/04/06 05:56:28;;;;;;;12.35;3.95;;;;;;;;;;7356208;19;20002;-77
2022/04/06 05:58:54;;;;;;;7.82;3.05;;;;;;;;;;7372356;19;20461;-79
2022/04/06 06:01:19;;;;;;;8.77;2.90;;;;;;;;;;7373430;19;20015;-78
2022/04/06 06:03:44;;;;;;;14.10;3.03;;;;;;;;;;7375061;19;20353;-77
2022/04/06 06:06:09;;;;;;;16.30;3.15;;;;;;;;;;7365684;19;20011;-77
2022/04/06 06:08:34;;;;;;;13.38;2.83;;;;;;;;;;7375856;19;20003;-78
2022/04/06 06:11:00;;;;;;;10.52;3.60;;;;;;;;;;7352234;19;20010;-78
2022/04/06 06:13:25;;;;;;;15.55;2.78;;;;;;;;;;7373177;19;20027;-78
2022/04/06 06:15:50;;;;;;;9.23;2.50;;;;;;;;;;7370255;19;20134;-77
2022/04/06 06:18:15;;;;;;;14.00;3.00;;;;;;;;;;7374445;19;20003;-76
2022/04/06 06:20:41;;;;;;;10.43;3.05;;;;;;;;;;7366620;19;20263;-79
2022/04/06 06:23:06;;;;;;;11.07;3.35;;;;;;;;;;7378679;19;20073;-77
2022/04/06 06:25:32;;;;;;;10.73;2.92;;;;;;;;;;7355857;19;20010;-75
2022/04/06 06:27:57;;;;;;;9.95;3.50;;;;;;;;;;7376147;19;20027;-76
2022/04/06 06:30:26;;;;;;;12.00;3.15;;;;;;;;;;7364083;19;20135;-80
2022/04/06 06:32:52;;;;;;;13.50;3.10;;;;;;;;;;7375008;19;20014;-78
2022/04/06 06:35:19;;;;;;;9.32;3.50;;;;;;;;;;7373570;19;20014;-78
2022/04/06 06:37:46;;;;;;;9.77;3.92;;;;;;;;;;7378393;19;20825;-77
2022/04/06 06:40:11;;;;;;;14.55;4.20;;;;;;;;;;7368258;19;20023;-79
2022/04/06 06:42:37;;;;;;;10.23;3.50;;;;;;;;;;7378641;19;19995;-78
2022/04/06 06:45:02;;;;;;;15.03;3.90;;;;;;;;;;7371481;19;20014;-76
2022/04/06 06:47:27;;;;;;;12.93;4.50;;;;;;;;;;7367576;19;20247;-79
2022/04/06 06:49:52;;;;;;;18.02;3.95;;;;;;;;;;7375483;19;20522;-78
2022/04/06 06:52:17;;;;;;;13.57;3.70;;;;;;;;;;7378133;19;20025;-78
2022/04/06 06:54:43;;;;;;;16.63;4.23;;;;;;;;;;7367621;19;20046;-79
2022/04/06 06:57:10;;;;;;;13.63;4.22;;;;;;;;;;7370345;19;20251;-78
2022/04/06 06:59:35;;;;;;;18.33;5.78;;;;;;;;;;7379200;19;20058;-78
2022/04/06 07:02:00;;;;;;;16.88;3.95;;;;;;;;;;7375293;19;20015;-77
2022/04/06 07:04:26;;;;;;;11.32;4.03;;;;;;;;;;7382018;19;20006;-77
2022/04/06 07:06:51;;;;;;;13.70;4.35;;;;;;;;;;7364096;19;20109;-77
2022/04/06 07:09:17;;;;;;;15.25;3.80;;;;;;;;;;7374454;19;20011;-77
2022/04/06 07:11:42;;;;;;;11.23;4.13;;;;;;;;;;7367397;19;20467;-77
2022/04/06 07:14:07;;;;;;;10.38;4.10;;;;;;;;;;7380952;19;20010;-76
2022/04/06 07:16:32;;;;;;;11.95;3.70;;;;;;;;;;7379700;19;20025;-78
2022/04/06 07:18:57;;;;;;;7.72;3.30;;;;;;;;;;7383425;19;20015;-77
2022/04/06 07:21:23;;;;;;;10.35;3.25;;;;;;;;;;7371805;19;20022;-78
2022/04/06 07:23:48;;;;;;;13.13;3.53;;;;;;;;;;7384928;19;20019;-79
2022/04/06 07:26:16;;;;;;;8.57;2.75;;;;;;;;;;7361335;19;20456;-77
2022/04/06 07:28:41;;;;;;;13.07;3.15;;;;;;;;;;7381322;19;20537;-76
2022/04/06 07:31:07;;;;;;;13.97;3.20;;;;;;;;;;7379337;19;20091;-77
2022/04/06 07:33:36;;;;;;;13.70;3.53;;;;;;;;;;7376122;19;20253;-77
2022/04/06 07:36:01;;;;;;;10.93;3.30;;;;;;;;;;7381020;19;20010;-77
2022/04/06 07:38:26;;;;;;;13.45;3.10;;;;;;;;;;7380323;19;20011;-78
2022/04/06 07:40:52;;;;;;;12.03;2.90;;;;;;;;;;7365906;19;20505;-77
2022/04/06 07:43:17;;;;;;;11.80;3.77;;;;;;;;;;7374768;19;20239;-76
2022/04/06 07:45:42;;;;;;;14.10;3.00;;;;;;;;;;7381136;19;20869;-77
2022/04/06 07:48:07;;;;;;;8.43;2.88;;;;;;;;;;7379445;19;20279;-77
2022/04/06 07:50:33;;;;;;;9.48;2.22;;;;;;;;;;7375579;19;20069;-79
2022/04/06 07:52:58;;;;;;;7.00;2.20;;;;;;;;;;7381900;19;20030;-78
2022/04/06 07:55:23;;;;;;;9.20;3.20;;;;;;;;;;7370319;19;20500;-77
2022/04/06 07:57:49;;;;;;;10.88;2.35;;;;;;;;;;7380256;19;20013;-78
2022/04/06 08:00:18;;;;;;;9.67;2.20;;;;;;;;;;7377576;19;20021;-78
2022/04/06 08:02:47;;;;;;;7.00;2.28;;;;;;;;;;7368130;19;20266;-78
2022/04/06 08:05:12;;;;;;;10.18;2.40;;;;;;;;;;7381380;19;20560;-77
2022/04/06 08:07:39;;;;;;;10.50;2.53;;;;;;;;;;7376115;19;20014;-77
2022/04/06 08:10:10;;;;;;;10.25;2.20;;;;;;;;;;7354927;19;20022;-77
2022/04/06 08:12:36;;;;;;;10.25;2.97;;;;;;;;;;7382186;19;20038;-77
2022/04/06 08:15:02;;;;;;;10.40;2.15;;;;;;;;;;7374763;19;20014;-78
2022/04/06 08:17:31;;;;;;;10.40;2.58;;;;;;;;;;7377485;19;20019;-77
2022/04/06 08:19:56;;;;;;;9.23;2.28;;;;;;;;;;7365091;19;20434;-78
2022/04/06 08:22:21;;;;;;;8.70;2.40;;;;;;;;;;7375754;19;20015;-75
2022/04/06 08:24:46;;;;;;;10.25;2.53;;;;;;;;;;7357838;19;20033;-79
2022/04/06 08:27:12;;;;;;;6.32;1.90;;;;;;;;;;7376301;19;20384;-78
2022/04/06 08:29:37;;;;;;;11.07;2.30;;;;;;;;;;7374845;19;20445;-77
2022/04/06 08:32:02;;;;;;;4.40;1.80;;;;;;;;;;7379104;19;20549;-77
2022/04/06 08:34:27;;;;;;;9.10;2.28;;;;;;;;;;7362814;19;20259;-76
2022/04/06 08:36:53;;;;;;;6.85;2.35;;;;;;;;;;7378070;19;20380;-77
2022/04/06 08:39:18;;;;;;;10.60;1.75;;;;;;;;;;7368796;19;20458;-78
2022/04/06 08:41:43;;;;;;;9.60;1.75;;;;;;;;;;7376061;19;20457;-77
2022/04/06 08:44:09;;;;;;;7.85;2.70;;;;;;;;;;7380382;19;20006;-78
2022/04/06 08:46:35;;;;;;;9.75;2.13;;;;;;;;;;7373297;19;20018;-78
2022/04/06 08:49:00;;;;;;;9.90;2.22;;;;;;;;;;7370313;19;19995;-79
2022/04/06 08:51:27;;;;;;;7.03;1.88;;;;;;;;;;7380696;19;20014;-79
2022/04/06 08:53:53;;;;;;;6.75;1.90;;;;;;;;;;7365636;19;20489;-79
2022/04/06 08:56:18;;;;;;;7.88;2.30;;;;;;;;;;7360707;19;20078;-77
2022/04/06 08:58:43;;;;;;;8.18;2.35;;;;;;;;;;7367674;19;20019;-74
2022/04/06 09:01:09;;;;;;;7.57;2.30;;;;;;;;;;7379259;19;20399;-79
2022/04/06 09:03:35;;;;;;;9.98;2.13;;;;;;;;;;7376535;19;19998;-77
2022/04/06 09:06:07;;;;;;;6.28;1.98;;;;;;;;;;7376102;19;20002;-79
2022/04/06 09:08:39;;;;;;;7.25;2.13;;;;;;;;;;7375329;19;20011;-79
2022/04/06 09:11:07;;;;;;;6.70;1.88;;;;;;;;;;7361514;19;20014;-77
2022/04/06 09:13:33;;;;;;;7.63;2.05;;;;;;;;;;7364630;19;19998;-75
2022/04/06 09:16:01;;;;;;;6.45;2.30;;;;;;;;;;7378204;19;20101;-84
2022/04/06 09:18:34;;;;;;;10.00;2.60;;;;;;;;;;7376853;19;19999;-80
2022/04/06 09:21:00;;;;;;;7.40;2.60;;;;;;;;;;7371239;19;20344;-81
2022/04/06 09:23:25;;;;;;;14.32;2.60;;;;;;;;;;7380647;19;19998;-82
2022/04/06 09:25:50;;;;;;;13.15;2.60;;;;;;;;;;7360459;19;20035;-80
2022/04/06 09:28:15;;;;;;;9.13;2.30;;;;;;;;;;7369997;19;19999;-81
2022/04/06 09:30:42;;;;;;;10.60;3.22;;;;;;;;;;7376388;19;20929;-80
2022/04/06 09:33:14;;;;;;;7.40;2.22;;;;;;;;;;7376755;19;19999;-80
2022/04/06 09:35:40;;;;;;;10.65;2.53;;;;;;;;;;7374884;19;20014;-82
2022/04/06 09:38:08;;;;;;;6.80;2.15;;;;;;;;;;7366488;19;20467;-79
2022/04/06 09:40:33;;;;;;;11.48;2.30;;;;;;;;;;7368800;19;20038;-80
2022/04/06 09:42:58;;;;;;;9.20;2.35;;;;;;;;;;7378181;19;20002;-81
2022/04/06 09:48:11;;;;;;;5.20;1.95;;;;;;;;;;7376788;19;20745;-80
2022/04/06 09:50:38;;;;;;;8.77;2.10;;;;;;;;;;7376018;19;20015;-80
2022/04/06 09:53:04;;;;;;;9.38;1.95;;;;;;;;;;7369641;19;20366;-80
2022/04/06 09:55:30;;;;;;;9.10;2.58;;;;;;;;;;7362111;19;20062;-80
2022/04/06 09:57:56;;;;;;;8.67;2.27;;;;;;;;;;7370403;19;20365;-81
2022/04/06 10:00:23;;;;;;;7.60;1.77;;;;;;;;;;7377665;19;20291;-80
2022/04/06 10:03:09;;;;;;;9.88;2.63;;;;;;;;;;7371619;19;20019;-80
2022/04/06 10:05:35;;;;;;;9.48;2.40;;;;;;;;;;7367800;19;20015;-82
2022/04/06 10:08:07;;;;;;;7.78;2.40;;;;;;;;;;7377228;19;19998;-82
2022/04/06 10:10:33;;;;;;;7.45;2.50;;;;;;;;;;7358532;19;20010;-83
2022/04/06 10:12:59;;;;;;;6.35;2.60;;;;;;;;;;7378723;19;20030;-80
2022/04/06 10:15:24;;;;;;;5.75;2.15;;;;;;;;;;7370965;19;20019;-83
2022/04/06 10:17:49;;;;;;;8.80;2.55;;;;;;;;;;7373785;19;20018;-80
2022/04/06 10:20:23;;;;;;;10.97;3.00;;;;;;;;;;7365458;19;20022;-81
2022/04/06 10:22:53;;;;;;;8.25;2.75;;;;;;;;;;7377110;19;20251;-82
2022/04/06 10:25:25;;;;;;;6.88;2.70;;;;;;;;;;7360216;19;20033;-79
2022/04/06 10:27:53;;;;;;;7.22;3.10;;;;;;;;;;7370875;19;20013;-82
2022/04/06 10:30:20;;;;;;;5.47;2.55;;;;;;;;;;7381339;19;20069;-79
2022/04/06 10:32:48;;;;;;;6.95;2.97;;;;;;;;;;7379941;19;20485;-79
2022/04/06 10:35:31;;;;;;;11.73;4.07;;;;;;;;;;7376425;19;20006;-82
2022/04/06 10:37:56;;;;;;;13.88;3.50;;;;;;;;;;7384660;19;20452;-79
2022/04/06 10:40:21;;;;;;;11.75;3.00;;;;;;;;;;7363679;19;20091;-82
2022/04/06 10:42:47;;;;;;;13.25;3.35;;;;;;;;;;7383159;19;20011;-80
2022/04/06 10:45:35;;;;;;;7.13;3.00;;;;;;;;;;7372975;19;20011;-84
2022/04/06 10:48:18;;;;;;;7.07;3.33;;;;;;;;;;7383458;19;20007;-83
2022/04/06 10:50:48;;;;;;;5.95;2.95;;;;;;;;;;7372124;19;20588;-83
2022/04/06 10:53:22;;;;;;;7.07;2.83;;;;;;;;;;7377202;19;20022;-82
2022/04/06 10:56:03;;;;;;;6.80;3.05;;;;;;;;;;7376098;19;20010;-80
2022/04/06 10:58:48;;;;;;;11.35;2.70;;;;;;;;;;7382749;19;20011;-82
2022/04/06 11:01:17;;;;;;;7.88;3.00;;;;;;;;;;7376621;19;19998;-82
2022/04/06 11:03:53;;;;;;;9.60;3.53;;;;;;;;;;7375477;19;20011;-83
2022/04/06 11:06:38;;;;;;;10.07;3.33;;;;;;;;;;7379024;19;20483;-80
2022/04/06 11:12:10;;;;;;;9.73;3.15;;;;;;;;;;7380531;19;20025;-80
2022/04/06 11:14:35;;;;;;;12.55;5.35;;;;;;;;;;7378978;19;20002;-81
2022/04/06 11:17:00;;;;;;;10.13;2.97;;;;;;;;;;7382149;19;20347;-79
2022/04/06 11:19:25;;;;;;;8.93;3.37;;;;;;;;;;7367621;19;20265;-81
2022/04/06 11:21:52;;;;;;;7.68;3.25;;;;;;;;;;7379218;19;20262;-82
2022/04/06 11:24:18;;;;;;;7.78;3.05;;;;;;;;;;7369671;19;20590;-84
2022/04/06 11:26:44;;;;;;;7.80;3.10;;;;;;;;;;7378155;19;20015;-81
2022/04/06 11:29:09;;;;;;;8.52;3.53;;;;;;;;;;7382008;19;20017;-83
2022/04/06 11:31:51;;;;;;;11.77;3.60;;;;;;;;;;7380871;19;20014;-80
2022/04/06 11:34:48;;;;;;;10.45;3.03;;;;;;;;;;7365977;19;20599;-81
2022/04/06 11:37:13;;;;;;;7.07;2.92;;;;;;;;;;7378506;19;20014;-80
2022/04/06 11:39:39;;;;;;;10.00;3.30;;;;;;;;;;7369386;19;19998;-80
2022/04/06 11:42:04;;;;;;;8.52;3.10;;;;;;;;;;7381767;19;20259;-80
2022/04/06 11:44:30;;;;;;;8.60;2.33;;;;;;;;;;7373575;19;20010;-82
2022/04/06 11:46:56;;;;;;;9.90;3.30;;;;;;;;;;7369234;19;19991;-82
2022/04/06 11:49:23;;;;;;;10.50;3.22;;;;;;;;;;7381269;19;20021;-80
2022/04/06 11:51:48;;;;;;;6.28;2.90;;;;;;;;;;7380395;19;20003;-80
2022/04/06 11:54:15;;;;;;;9.32;2.90;;;;;;;;;;7363627;19;20026;-83
2022/04/06 11:56:40;;;;;;;9.60;3.47;;;;;;;;;;7372508;19;20026;-81
2022/04/06 11:59:09;;;;;;;7.72;3.08;;;;;;;;;;7380121;19;19994;-83
2022/04/06 12:01:40;;;;;;;7.22;2.83;;;;;;;;;;7375645;19;20259;-80
2022/04/06 12:04:12;;;;;;;8.38;3.10;;;;;;;;;;7374423;19;20342;-80
2022/04/06 12:06:37;;;;;;;9.13;2.67;;;;;;;;;;7373239;19;20011;-81
2022/04/06 12:09:02;;;;;;;10.70;3.10;;;;;;;;;;7380175;19;19995;-80
2022/04/06 12:11:27;;;;;;;10.95;3.28;;;;;;;;;;7373011;19;20029;-81
2022/04/06 12:13:56;;;;;;;8.07;2.80;;;;;;;;;;7378579;19;20026;-83
2022/04/06 12:16:22;;;;;;;7.15;2.63;;;;;;;;;;7374608;19;20287;-79
2022/04/06 12:18:50;;;;;;;10.82;3.42;;;;;;;;;;7374009;19;20558;-82
2022/04/06 12:21:19;;;;;;;8.68;3.08;;;;;;;;;;7368375;19;20014;-83
2022/04/06 12:23:45;;;;;;;11.75;2.83;;;;;;;;;;7372474;19;20002;-81
2022/04/06 12:26:11;;;;;;;7.68;2.17;;;;;;;;;;7371218;19;20014;-82
2022/04/06 12:28:36;;;;;;;6.75;2.47;;;;;;;;;;7379743;19;20316;-81
2022/04/06 12:31:03;;;;;;;7.67;2.23;;;;;;;;;;7377808;19;20023;-81
2022/04/06 12:33:44;;;;;;;5.65;2.10;;;;;;;;;;7362367;19;20243;-81
2022/04/06 12:36:25;;;;;;;14.52;2.67;;;;;;;;;;7379185;19;20464;-80
2022/04/06 12:39:10;;;;;;;6.93;2.30;;;;;;;;;;7368505;19;20021;-81
2022/04/06 12:41:50;;;;;;;9.48;2.00;;;;;;;;;;7372186;19;20018;-81
2022/04/06 12:44:15;;;;;;;5.45;2.03;;;;;;;;;;7378032;19;20027;-83
2022/04/06 12:46:42;;;;;;;7.07;2.55;;;;;;;;;;7378063;19;20421;-82
2022/04/06 12:49:18;;;;;;;9.43;2.35;;;;;;;;;;7353411;19;20305;-84
2022/04/06 12:51:43;;;;;;;6.72;2.70;;;;;;;;;;7377858;19;20018;-81
2022/04/06 12:54:08;;;;;;;9.75;2.22;;;;;;;;;;7374449;19;20354;-82
2022/04/06 12:56:33;;;;;;;7.63;2.83;;;;;;;;;;7366478;19;20017;-80
2022/04/06 12:59:11;;;;;;;5.50;2.00;;;;;;;;;;7378656;19;19994;-82
2022/04/06 13:01:43;;;;;;;6.00;2.15;;;;;;;;;;7371769;19;20798;-82
2022/04/06 13:04:08;;;;;;;6.85;1.98;;;;;;;;;;7378541;19;20029;-82
2022/04/06 13:06:33;;;;;;;4.45;2.20;;;;;;;;;;7375574;19;20010;-82
2022/04/06 13:08:59;;;;;;;7.70;2.73;;;;;;;;;;7362673;19;20010;-84
2022/04/06 13:11:24;;;;;;;8.30;2.28;;;;;;;;;;7367730;19;20268;-84
2022/04/06 13:13:49;;;;;;;5.82;1.90;;;;;;;;;;7378257;19;19999;-83
2022/04/06 13:16:14;;;;;;;7.03;2.88;;;;;;;;;;7376866;19;20256;-82
2022/04/06 13:18:40;;;;;;;5.50;2.10;;;;;;;;;;7367311;19;20328;-83
2022/04/06 13:21:05;;;;;;;7.28;2.00;;;;;;;;;;7371957;19;20691;-81
2022/04/06 13:23:30;;;;;;;7.33;2.13;;;;;;;;;;7379894;19;20047;-81
2022/04/06 13:25:55;;;;;;;5.68;2.08;;;;;;;;;;7354039;19;20267;-82
2022/04/06 13:28:21;;;;;;;6.63;2.45;;;;;;;;;;7380886;19;20311;-81
2022/04/06 13:30:46;;;;;;;7.55;2.50;;;;;;;;;;7373538;19;20250;-82
2022/04/06 13:33:12;;;;;;;5.65;2.30;;;;;;;;;;7371939;19;20854;-82
2022/04/06 13:35:37;;;;;;;7.80;2.50;;;;;;;;;;7377396;19;20019;-82
2022/04/06 13:38:02;;;;;;;5.78;2.40;;;;;;;;;;7376520;19;20761;-84
2022/04/06 13:40:29;;;;;;;5.65;2.30;;;;;;;;;;7357479;19;20007;-82
2022/04/06 13:42:54;;;;;;;6.78;2.45;;;;;;;;;;7377660;19;19995;-82
2022/04/06 13:45:19;;;;;;;8.02;2.80;;;;;;;;;;7376231;19;20035;-81
2022/04/06 13:47:44;;;;;;;9.15;2.97;;;;;;;;;;7364954;19;20441;-82
2022/04/06 13:50:10;;;;;;;6.47;2.60;;;;;;;;;;7376402;19;20014;-81
2022/04/06 13:52:39;;;;;;;9.38;3.00;;;;;;;;;;7372215;19;19998;-81
2022/04/06 13:55:04;;;;;;;9.07;3.17;;;;;;;;;;7364019;19;20663;-81
2022/04/06 13:57:29;;;;;;;11.07;3.47;;;;;;;;;;7373998;19;20044;-81
2022/04/06 13:59:56;;;;;;;6.15;2.72;;;;;;;;;;7366023;19;20028;-84
2022/04/06 14:02:21;;;;;;;7.07;3.35;;;;;;;;;;7365049;19;20018;-82
2022/04/06 14:04:46;;;;;;;6.77;3.37;;;;;;;;;;7382148;19;20005;-84
2022/04/06 14:07:11;;;;;;;6.97;3.27;;;;;;;;;;7381101;19;20267;-81
2022/04/06 14:09:37;;;;;;;12.68;3.65;;;;;;;;;;7372728;19;20912;-81
2022/04/06 14:12:02;;;;;;;8.38;3.50;;;;;;;;;;7381528;19;20007;-82
2022/04/06 14:14:28;;;;;;;7.28;3.50;;;;;;;;;;7380935;19;19999;-81
2022/04/06 14:16:53;;;;;;;8.68;3.30;;;;;;;;;;7378029;19;20540;-81
2022/04/06 14:19:18;;;;;;;9.73;3.53;;;;;;;;;;7373351;19;20243;-82
2022/04/06 14:21:43;;;;;;;11.13;3.97;;;;;;;;;;7384817;19;20505;-82
2022/04/06 14:24:09;;;;;;;9.93;3.22;;;;;;;;;;7380498;19;20049;-81
2022/04/06 14:26:35;;;;;;;10.63;4.05;;;;;;;;;;7360586;19;20001;-84
2022/04/06 14:29:00;;;;;;;8.95;3.60;;;;;;;;;;7385363;19;20018;-81
2022/04/06 14:31:26;;;;;;;10.73;3.80;;;;;;;;;;7378201;19;20030;-82
2022/04/06 14:33:51;;;;;;;10.02;3.72;;;;;;;;;;7381113;19;20082;-83
2022/04/06 14:36:18;;;;;;;8.25;3.58;;;;;;;;;;7372713;19;20002;-81
2022/04/06 14:38:44;;;;;;;11.38;4.25;;;;;;;;;;7374575;19;20120;-81
2022/04/06 14:41:09;;;;;;;8.98;3.90;;;;;;;;;;7367446;19;20043;-81